sensor_id;sensor_type;location;lat;lon;timestamp;P1;P2;P0
65680;PMS5003;61747;54.966;73.394;2022-09-01T00:01:50;18.00;17.00;5.00
65680;PMS5003;61747;54.966;73.394;2022-09-01T00:04:25;17.25;16.00;6.00
65680;PMS5003;61747;54.966;73.394;2022-09-01T00:06:52;18.50;17.00;6.75
65680;PMS5003;61747;54.966;73.394;2022-09-01T00:09:24;19.50;17.00;7.00
65680;PMS5003;61747;54.966;73.394;2022-09-01T00:11:51;18.00;17.00;6.00
65680;PMS5003;61747;54.966;73.394;2022-09-01T00:14:18;16.00;16.00;6.00
65680;PMS5003;61747;54.966;73.394;2022-09-01T00:16:54;17.00;16.50;6.00
65680;PMS5003;61747;54.966;73.394;2022-09-01T00:19:22;17.00;16.00;7.00
65680;PMS5003;61747;54.966;73.394;2022-09-01T00:21:57;16.50;13.75;5.75
65680;PMS5003;61747;54.966;73.394;2022-09-01T00:24:22;16.33;13.33;6.00
65680;PMS5003;61747;54.966;73.394;2022-09-01T00:26:50;17.50;15.00;6.00
65680;PMS5003;61747;54.966;73.394;2022-09-01T00:29:22;17.50;16.00;7.00
65680;PMS5003;61747;54.966;73.394;2022-09-01T00:31:48;18.00;15.25;6.00
65680;PMS5003;61747;54.966;73.394;2022-09-01T00:34:15;21.00;17.00;7.00
65680;PMS5003;61747;54.966;73.394;2022-09-01T00:36:41;19.00;17.00;7.00
65680;PMS5003;61747;54.966;73.394;2022-09-01T00:39:07;18.00;16.67;6.00
65680;PMS5003;61747;54.966;73.394;2022-09-01T00:41:35;18.00;16.00;7.00
65680;PMS5003;61747;54.966;73.394;2022-09-01T00:44:08;16.00;14.00;7.00
65680;PMS5003;61747;54.966;73.394;2022-09-01T00:46:43;15.00;14.25;6.00
65680;PMS5003;61747;54.966;73.394;2022-09-01T00:49:17;18.50;15.00;6.75
65680;PMS5003;61747;54.966;73.394;2022-09-01T00:51:53;17.25;16.00;6.50
65680;PMS5003;61747;54.966;73.394;2022-09-01T00:54:26;20.00;17.75;7.00
65680;PMS5003;61747;54.966;73.394;2022-09-01T00:56:52;20.50;16.00;5.75
65680;PMS5003;61747;54.966;73.394;2022-09-01T00:59:24;20.50;18.00;8.75
65680;PMS5003;61747;54.966;73.394;2022-09-01T01:01:56;19.00;18.50;8.00
65680;PMS5003;61747;54.966;73.394;2022-09-01T01:04:22;18.50;16.50;7.00
65680;PMS5003;61747;54.966;73.394;2022-09-01T01:06:50;19.25;16.00;7.00
65680;PMS5003;61747;54.966;73.394;2022-09-01T01:09:24;18.00;17.00;8.00
65680;PMS5003;61747;54.966;73.394;2022-09-01T01:11:50;19.00;17.00;8.00
65680;PMS5003;61747;54.966;73.394;2022-09-01T01:14:16;22.00;19.50;8.75
65680;PMS5003;61747;54.966;73.394;2022-09-01T01:16:44;21.00;19.25;8.00
65680;PMS5003;61747;54.966;73.394;2022-09-01T01:22:09;20.00;18.50;7.00
65680;PMS5003;61747;54.966;73.394;2022-09-01T01:24:56;19.00;18.00;8.00
65680;PMS5003;61747;54.966;73.394;2022-09-01T01:27:23;21.00;17.00;7.00
65680;PMS5003;61747;54.966;73.394;2022-09-01T01:30:00;17.00;16.25;7.75
65680;PMS5003;61747;54.966;73.394;2022-09-01T01:32:27;19.75;17.00;6.75
65680;PMS5003;61747;54.966;73.394;2022-09-01T01:35:04;21.00;16.00;7.00
65680;PMS5003;61747;54.966;73.394;2022-09-01T01:37:33;18.00;16.00;7.00
65680;PMS5003;61747;54.966;73.394;2022-09-01T01:40:00;18.50;17.25;7.00
65680;PMS5003;61747;54.966;73.394;2022-09-01T01:42:36;20.00;16.50;6.50
65680;PMS5003;61747;54.966;73.394;2022-09-01T01:45:13;20.00;15.75;7.50
65680;PMS5003;61747;54.966;73.394;2022-09-01T01:47:48;19.00;17.50;7.00
65680;PMS5003;61747;54.966;73.394;2022-09-01T01:50:28;20.00;17.00;6.50
65680;PMS5003;61747;54.966;73.394;2022-09-01T01:53:02;17.00;16.00;6.00
65680;PMS5003;61747;54.966;73.394;2022-09-01T01:55:34;21.00;17.50;8.00
65680;PMS5003;61747;54.966;73.394;2022-09-01T01:58:05;17.75;17.50;7.25
65680;PMS5003;61747;54.966;73.394;2022-09-01T02:00:33;21.50;18.00;8.00
65680;PMS5003;61747;54.966;73.394;2022-09-01T02:02:59;18.00;17.00;7.00
65680;PMS5003;61747;54.966;73.394;2022-09-01T02:05:36;20.00;18.00;8.00
65680;PMS5003;61747;54.966;73.394;2022-09-01T02:08:07;19.25;18.00;7.25
65680;PMS5003;61747;54.966;73.394;2022-09-01T02:10:40;21.00;18.00;7.00
65680;PMS5003;61747;54.966;73.394;2022-09-01T02:13:18;19.00;17.00;8.50
65680;PMS5003;61747;54.966;73.394;2022-09-01T02:15:58;20.00;17.75;8.00
65680;PMS5003;61747;54.966;73.394;2022-09-01T02:18:25;20.00;18.75;8.00
65680;PMS5003;61747;54.966;73.394;2022-09-01T02:20:56;22.25;19.00;9.00
65680;PMS5003;61747;54.966;73.394;2022-09-01T02:23:25;21.75;18.00;9.00
65680;PMS5003;61747;54.966;73.394;2022-09-01T02:25:58;20.25;18.00;7.00
65680;PMS5003;61747;54.966;73.394;2022-09-01T02:28:36;19.00;18.00;8.50
65680;PMS5003;61747;54.966;73.394;2022-09-01T02:31:17;18.75;17.75;8.75
65680;PMS5003;61747;54.966;73.394;2022-09-01T02:33:44;22.00;19.75;10.50
65680;PMS5003;61747;54.966;73.394;2022-09-01T02:36:12;20.75;19.00;7.25
65680;PMS5003;61747;54.966;73.394;2022-09-01T02:38:48;18.00;18.00;7.75
65680;PMS5003;61747;54.966;73.394;2022-09-01T02:41:15;20.50;19.50;8.00
65680;PMS5003;61747;54.966;73.394;2022-09-01T02:43:44;21.00;20.00;8.00
65680;PMS5003;61747;54.966;73.394;2022-09-01T02:46:11;23.75;20.00;7.75
65680;PMS5003;61747;54.966;73.394;2022-09-01T02:48:42;25.00;19.00;9.00
65680;PMS5003;61747;54.966;73.394;2022-09-01T02:51:17;25.00;19.25;9.00
65680;PMS5003;61747;54.966;73.394;2022-09-01T02:53:53;24.25;22.50;7.50
65680;PMS5003;61747;54.966;73.394;2022-09-01T02:56:24;22.25;21.00;9.50
65680;PMS5003;61747;54.966;73.394;2022-09-01T02:58:53;27.00;21.75;10.75
65680;PMS5003;61747;54.966;73.394;2022-09-01T03:03:59;23.75;21.00;11.00
65680;PMS5003;61747;54.966;73.394;2022-09-01T03:06:25;26.00;21.25;11.00
65680;PMS5003;61747;54.966;73.394;2022-09-01T03:08:51;26.00;21.75;10.00
65680;PMS5003;61747;54.966;73.394;2022-09-01T03:11:17;24.50;20.25;10.25
65680;PMS5003;61747;54.966;73.394;2022-09-01T03:13:53;24.00;21.00;12.00
65680;PMS5003;61747;54.966;73.394;2022-09-01T03:16:19;24.00;20.00;10.67
65680;PMS5003;61747;54.966;73.394;2022-09-01T03:18:47;24.25;18.00;9.00
65680;PMS5003;61747;54.966;73.394;2022-09-01T03:21:22;23.00;19.00;9.00
65680;PMS5003;61747;54.966;73.394;2022-09-01T03:23:49;22.25;19.25;8.25
65680;PMS5003;61747;54.966;73.394;2022-09-01T03:26:16;20.00;18.00;9.00
65680;PMS5003;61747;54.966;73.394;2022-09-01T03:28:54;20.00;17.00;8.00
65680;PMS5003;61747;54.966;73.394;2022-09-01T03:31:22;18.00;16.00;7.75
65680;PMS5003;61747;54.966;73.394;2022-09-01T03:33:55;20.25;16.50;8.00
65680;PMS5003;61747;54.966;73.394;2022-09-01T03:36:27;21.00;18.75;8.00
65680;PMS5003;61747;54.966;73.394;2022-09-01T03:38:53;19.00;17.00;7.00
65680;PMS5003;61747;54.966;73.394;2022-09-01T03:41:30;20.00;18.00;7.00
65680;PMS5003;61747;54.966;73.394;2022-09-01T03:44:00;19.75;18.00;7.00
65680;PMS5003;61747;54.966;73.394;2022-09-01T03:46:34;22.75;18.00;7.75
65680;PMS5003;61747;54.966;73.394;2022-09-01T03:49:10;20.00;18.00;7.00
65680;PMS5003;61747;54.966;73.394;2022-09-01T03:51:41;18.00;16.00;7.00
65680;PMS5003;61747;54.966;73.394;2022-09-01T03:54:08;20.00;17.50;7.00
65680;PMS5003;61747;54.966;73.394;2022-09-01T03:56:42;20.00;17.00;8.00
65680;PMS5003;61747;54.966;73.394;2022-09-01T03:59:14;22.00;17.50;8.00
65680;PMS5003;61747;54.966;73.394;2022-09-01T04:01:47;21.25;19.75;7.50
65680;PMS5003;61747;54.966;73.394;2022-09-01T04:04:14;20.00;19.00;8.00
65680;PMS5003;61747;54.966;73.394;2022-09-01T04:06:41;20.00;19.00;7.00
65680;PMS5003;61747;54.966;73.394;2022-09-01T04:09:07;22.00;19.75;9.00
65680;PMS5003;61747;54.966;73.394;2022-09-01T04:11:46;19.00;18.00;8.00
65680;PMS5003;61747;54.966;73.394;2022-09-01T04:14:20;19.50;18.00;8.00
65680;PMS5003;61747;54.966;73.394;2022-09-01T04:16:48;21.75;17.00;10.00
65680;PMS5003;61747;54.966;73.394;2022-09-01T04:19:36;21.75;17.25;8.50
65680;PMS5003;61747;54.966;73.394;2022-09-01T04:22:03;22.50;17.00;7.00
65680;PMS5003;61747;54.966;73.394;2022-09-01T04:24:39;22.00;17.25;7.00
65680;PMS5003;61747;54.966;73.394;2022-09-01T04:27:07;19.00;17.25;8.00
65680;PMS5003;61747;54.966;73.394;2022-09-01T04:29:38;19.75;18.00;8.00
65680;PMS5003;61747;54.966;73.394;2022-09-01T04:32:08;20.25;17.00;8.00
65680;PMS5003;61747;54.966;73.394;2022-09-01T04:34:42;23.00;18.00;7.00
65680;PMS5003;61747;54.966;73.394;2022-09-01T04:37:12;21.50;18.00;8.00
65680;PMS5003;61747;54.966;73.394;2022-09-01T04:39:53;22.00;19.00;8.50
65680;PMS5003;61747;54.966;73.394;2022-09-01T04:42:30;20.50;20.00;9.00
65680;PMS5003;61747;54.966;73.394;2022-09-01T04:44:57;19.00;18.00;8.00
65680;PMS5003;61747;54.966;73.394;2022-09-01T04:47:36;19.00;17.00;7.00
65680;PMS5003;61747;54.966;73.394;2022-09-01T04:50:17;19.50;18.00;7.00
65680;PMS5003;61747;54.966;73.394;2022-09-01T04:53:03;20.00;18.00;7.00
65680;PMS5003;61747;54.966;73.394;2022-09-01T04:55:37;21.00;16.75;7.75
65680;PMS5003;61747;54.966;73.394;2022-09-01T04:58:04;20.00;16.00;8.25
65680;PMS5003;61747;54.966;73.394;2022-09-01T05:00:30;19.00;17.00;8.00
65680;PMS5003;61747;54.966;73.394;2022-09-01T05:02:59;19.50;15.25;7.00
65680;PMS5003;61747;54.966;73.394;2022-09-01T05:05:42;20.00;17.00;7.00
65680;PMS5003;61747;54.966;73.394;2022-09-01T05:08:12;21.25;18.00;7.50
65680;PMS5003;61747;54.966;73.394;2022-09-01T05:10:40;19.00;17.00;8.00
65680;PMS5003;61747;54.966;73.394;2022-09-01T05:13:29;20.00;18.00;7.00
65680;PMS5003;61747;54.966;73.394;2022-09-01T05:16:02;19.00;18.00;8.00
65680;PMS5003;61747;54.966;73.394;2022-09-01T05:18:28;18.00;15.75;6.75
65680;PMS5003;61747;54.966;73.394;2022-09-01T05:21:03;18.50;15.50;7.00
65680;PMS5003;61747;54.966;73.394;2022-09-01T05:23:44;20.00;17.00;8.00
65680;PMS5003;61747;54.966;73.394;2022-09-01T05:26:15;17.75;16.00;7.00
65680;PMS5003;61747;54.966;73.394;2022-09-01T05:28:43;14.00;13.00;6.00
65680;PMS5003;61747;54.966;73.394;2022-09-01T05:31:15;17.75;15.50;7.00
65680;PMS5003;61747;54.966;73.394;2022-09-01T05:33:54;19.00;17.00;8.00
65680;PMS5003;61747;54.966;73.394;2022-09-01T05:36:22;19.00;16.00;6.00
65680;PMS5003;61747;54.966;73.394;2022-09-01T05:38:50;16.00;13.00;5.00
65680;PMS5003;61747;54.966;73.394;2022-09-01T05:41:17;15.00;12.00;5.00
65680;PMS5003;61747;54.966;73.394;2022-09-01T05:43:45;15.50;13.00;7.00
65680;PMS5003;61747;54.966;73.394;2022-09-01T05:46:12;17.00;14.00;8.00
65680;PMS5003;61747;54.966;73.394;2022-09-01T05:48:52;17.75;15.00;6.00
65680;PMS5003;61747;54.966;73.394;2022-09-01T05:51:20;17.00;16.00;7.50
65680;PMS5003;61747;54.966;73.394;2022-09-01T05:53:47;18.00;15.25;7.25
65680;PMS5003;61747;54.966;73.394;2022-09-01T05:56:27;17.00;16.00;8.00
65680;PMS5003;61747;54.966;73.394;2022-09-01T05:59:01;17.50;15.00;7.00
65680;PMS5003;61747;54.966;73.394;2022-09-01T06:01:28;19.00;15.00;7.75
65680;PMS5003;61747;54.966;73.394;2022-09-01T06:03:56;21.00;18.00;9.25
65680;PMS5003;61747;54.966;73.394;2022-09-01T06:06:41;19.00;19.00;7.25
65680;PMS5003;61747;54.966;73.394;2022-09-01T06:09:14;20.00;17.75;7.50
65680;PMS5003;61747;54.966;73.394;2022-09-01T06:11:46;20.50;19.00;9.00
65680;PMS5003;61747;54.966;73.394;2022-09-01T06:14:15;18.00;17.50;8.00
65680;PMS5003;61747;54.966;73.394;2022-09-01T06:16:47;20.00;18.00;9.00
65680;PMS5003;61747;54.966;73.394;2022-09-01T06:19:14;18.50;17.50;9.00
65680;PMS5003;61747;54.966;73.394;2022-09-01T06:21:44;21.00;17.25;8.00
65680;PMS5003;61747;54.966;73.394;2022-09-01T06:24:13;19.00;18.25;7.25
65680;PMS5003;61747;54.966;73.394;2022-09-01T06:26:39;20.00;19.00;10.00
65680;PMS5003;61747;54.966;73.394;2022-09-01T06:29:07;19.00;19.00;9.75
65680;PMS5003;61747;54.966;73.394;2022-09-01T06:31:51;21.00;19.00;9.00
65680;PMS5003;61747;54.966;73.394;2022-09-01T06:34:18;22.00;19.00;9.00
65680;PMS5003;61747;54.966;73.394;2022-09-01T06:36:50;21.00;19.00;9.00
65680;PMS5003;61747;54.966;73.394;2022-09-01T06:39:24;23.25;18.00;9.00
65680;PMS5003;61747;54.966;73.394;2022-09-01T06:41:55;23.00;20.00;9.50
65680;PMS5003;61747;54.966;73.394;2022-09-01T06:44:32;23.00;20.00;8.00
65680;PMS5003;61747;54.966;73.394;2022-09-01T06:47:12;25.00;21.50;11.50
65680;PMS5003;61747;54.966;73.394;2022-09-01T06:49:39;22.00;19.00;9.00
65680;PMS5003;61747;54.966;73.394;2022-09-01T06:52:10;19.50;18.25;7.25
65680;PMS5003;61747;54.966;73.394;2022-09-01T06:54:36;17.00;16.00;8.00
65680;PMS5003;61747;54.966;73.394;2022-09-01T06:57:14;17.00;17.00;8.00
65680;PMS5003;61747;54.966;73.394;2022-09-01T06:59:40;19.75;16.75;10.00
65680;PMS5003;61747;54.966;73.394;2022-09-01T07:02:06;20.00;19.00;9.00
65680;PMS5003;61747;54.966;73.394;2022-09-01T07:05:04;19.00;18.00;6.00
65680;PMS5003;61747;54.966;73.394;2022-09-01T07:07:32;21.00;20.00;9.50
65680;PMS5003;61747;54.966;73.394;2022-09-01T07:10:03;20.00;17.00;8.00
65680;PMS5003;61747;54.966;73.394;2022-09-01T07:12:56;20.00;17.00;6.00
65680;PMS5003;61747;54.966;73.394;2022-09-01T07:15:24;18.00;16.75;7.00
65680;PMS5003;61747;54.966;73.394;2022-09-01T07:17:55;17.00;17.00;8.00
65680;PMS5003;61747;54.966;73.394;2022-09-01T07:20:26;20.25;18.75;9.00
65680;PMS5003;61747;54.966;73.394;2022-09-01T07:23:04;20.00;16.00;5.00
65680;PMS5003;61747;54.966;73.394;2022-09-01T07:25:40;20.00;17.00;8.00
65680;PMS5003;61747;54.966;73.394;2022-09-01T07:28:18;19.50;17.00;9.00
65680;PMS5003;61747;54.966;73.394;2022-09-01T07:30:53;20.75;17.25;8.00
65680;PMS5003;61747;54.966;73.394;2022-09-01T07:33:23;19.00;14.00;6.00
65680;PMS5003;61747;54.966;73.394;2022-09-01T07:35:52;19.75;14.50;8.75
65680;PMS5003;61747;54.966;73.394;2022-09-01T07:38:22;18.75;16.00;8.50
65680;PMS5003;61747;54.966;73.394;2022-09-01T07:40:48;19.25;18.00;7.00
65680;PMS5003;61747;54.966;73.394;2022-09-01T07:43:41;18.00;15.00;7.00
65680;PMS5003;61747;54.966;73.394;2022-09-01T07:46:21;15.00;12.00;4.00
65680;PMS5003;61747;54.966;73.394;2022-09-01T07:48:52;14.00;10.00;5.00
65680;PMS5003;61747;54.966;73.394;2022-09-01T07:51:20;15.50;11.00;7.00
65680;PMS5003;61747;54.966;73.394;2022-09-01T07:53:47;16.00;14.00;7.00
65680;PMS5003;61747;54.966;73.394;2022-09-01T07:56:15;14.00;13.50;4.00
65680;PMS5003;61747;54.966;73.394;2022-09-01T07:58:46;13.75;12.00;6.00
65680;PMS5003;61747;54.966;73.394;2022-09-01T08:01:15;15.00;13.00;6.00
65680;PMS5003;61747;54.966;73.394;2022-09-01T08:03:51;12.75;10.75;4.00
65680;PMS5003;61747;54.966;73.394;2022-09-01T08:06:28;13.00;11.00;6.00
65680;PMS5003;61747;54.966;73.394;2022-09-01T08:09:00;14.25;11.00;5.00
65680;PMS5003;61747;54.966;73.394;2022-09-01T08:11:40;14.25;10.00;5.50
65680;PMS5003;61747;54.966;73.394;2022-09-01T08:14:07;17.25;13.00;6.00
65680;PMS5003;61747;54.966;73.394;2022-09-01T08:16:33;14.75;12.00;6.00
65680;PMS5003;61747;54.966;73.394;2022-09-01T08:19:01;15.00;11.00;6.00
65680;PMS5003;61747;54.966;73.394;2022-09-01T08:21:50;14.00;11.00;5.25
65680;PMS5003;61747;54.966;73.394;2022-09-01T08:24:35;14.00;10.50;6.00
65680;PMS5003;61747;54.966;73.394;2022-09-01T08:27:02;17.75;12.00;5.50
65680;PMS5003;61747;54.966;73.394;2022-09-01T08:29:29;16.50;11.50;6.00
65680;PMS5003;61747;54.966;73.394;2022-09-01T08:31:55;15.00;12.00;5.67
65680;PMS5003;61747;54.966;73.394;2022-09-01T08:34:26;16.00;13.00;6.50
65680;PMS5003;61747;54.966;73.394;2022-09-01T08:36:52;14.00;12.25;5.00
65680;PMS5003;61747;54.966;73.394;2022-09-01T08:39:18;13.75;11.75;6.25
65680;PMS5003;61747;54.966;73.394;2022-09-01T08:41:48;16.67;13.00;6.00
65680;PMS5003;61747;54.966;73.394;2022-09-01T08:46:44;6.00;6.00;4.00
65680;PMS5003;61747;54.966;73.394;2022-09-01T08:49:17;9.25;8.25;4.00
65680;PMS5003;61747;54.966;73.394;2022-09-01T08:57:07;8.00;8.00;3.00
65680;PMS5003;61747;54.966;73.394;2022-09-01T08:59:59;6.00;5.00;2.00
65680;PMS5003;61747;54.966;73.394;2022-09-01T09:02:34;10.00;7.00;3.00
65680;PMS5003;61747;54.966;73.394;2022-09-01T09:10:50;9.75;8.00;4.00
65680;PMS5003;61747;54.966;73.394;2022-09-01T09:16:29;9.00;8.00;4.00
65680;PMS5003;61747;54.966;73.394;2022-09-01T09:21:44;8.75;7.50;3.00
65680;PMS5003;61747;54.966;73.394;2022-09-01T09:24:23;8.75;8.75;5.00
65680;PMS5003;61747;54.966;73.394;2022-09-01T09:26:51;8.25;8.00;5.00
65680;PMS5003;61747;54.966;73.394;2022-09-01T09:29:26;13.25;12.00;6.00
65680;PMS5003;61747;54.966;73.394;2022-09-01T09:32:05;11.25;9.00;5.00
65680;PMS5003;61747;54.966;73.394;2022-09-01T09:34:42;10.75;9.00;4.00
65680;PMS5003;61747;54.966;73.394;2022-09-01T09:40:02;12.50;12.50;6.00
65680;PMS5003;61747;54.966;73.394;2022-09-01T09:42:37;16.75;13.25;6.75
65680;PMS5003;61747;54.966;73.394;2022-09-01T09:45:05;13.75;10.00;5.00
65680;PMS5003;61747;54.966;73.394;2022-09-01T09:47:38;16.50;10.00;6.25
65680;PMS5003;61747;54.966;73.394;2022-09-01T09:50:26;16.00;11.00;7.00
65680;PMS5003;61747;54.966;73.394;2022-09-01T09:58:20;15.00;10.00;6.00
65680;PMS5003;61747;54.966;73.394;2022-09-01T10:01:01;14.00;10.00;5.75
65680;PMS5003;61747;54.966;73.394;2022-09-01T10:03:39;8.25;7.50;4.00
65680;PMS5003;61747;54.966;73.394;2022-09-01T10:06:15;10.00;7.25;4.00
65680;PMS5003;61747;54.966;73.394;2022-09-01T10:09:07;10.00;9.75;5.00
65680;PMS5003;61747;54.966;73.394;2022-09-01T10:11:37;13.00;13.00;6.50
65680;PMS5003;61747;54.966;73.394;2022-09-01T10:14:13;15.00;11.00;5.00
65680;PMS5003;61747;54.966;73.394;2022-09-01T10:16:40;15.00;10.00;5.00
65680;PMS5003;61747;54.966;73.394;2022-09-01T10:19:10;17.75;12.00;6.00
65680;PMS5003;61747;54.966;73.394;2022-09-01T10:21:46;12.00;10.00;7.00
65680;PMS5003;61747;54.966;73.394;2022-09-01T10:26:52;17.25;15.00;7.00
65680;PMS5003;61747;54.966;73.394;2022-09-01T10:29:21;19.75;16.50;7.00
65680;PMS5003;61747;54.966;73.394;2022-09-01T10:31:50;20.00;15.25;5.00
65680;PMS5003;61747;54.966;73.394;2022-09-01T10:34:16;16.25;12.00;6.00
65680;PMS5003;61747;54.966;73.394;2022-09-01T10:36:44;17.00;14.00;6.75
65680;PMS5003;61747;54.966;73.394;2022-09-01T10:39:11;18.50;15.00;8.00
65680;PMS5003;61747;54.966;73.394;2022-09-01T10:41:52;18.00;13.00;6.00
65680;PMS5003;61747;54.966;73.394;2022-09-01T10:44:35;16.00;14.00;5.00
65680;PMS5003;61747;54.966;73.394;2022-09-01T10:47:24;18.00;15.00;5.00
65680;PMS5003;61747;54.966;73.394;2022-09-01T10:50:03;17.00;15.00;5.00
65680;PMS5003;61747;54.966;73.394;2022-09-01T10:55:18;18.00;16.00;8.00
65680;PMS5003;61747;54.966;73.394;2022-09-01T11:11:03;20.00;16.00;7.50
65680;PMS5003;61747;54.966;73.394;2022-09-01T11:16:27;19.50;17.75;8.50
65680;PMS5003;61747;54.966;73.394;2022-09-01T11:18:54;18.25;18.00;9.00
65680;PMS5003;61747;54.966;73.394;2022-09-01T11:21:27;20.00;18.00;9.25
65680;PMS5003;61747;54.966;73.394;2022-09-01T11:26:57;21.00;19.00;9.00
65680;PMS5003;61747;54.966;73.394;2022-09-01T11:32:12;23.75;22.00;11.00
65680;PMS5003;61747;54.966;73.394;2022-09-01T11:34:41;26.00;21.25;11.00
65680;PMS5003;61747;54.966;73.394;2022-09-01T11:37:19;27.75;24.00;12.75
65680;PMS5003;61747;54.966;73.394;2022-09-01T11:39:48;29.00;23.75;13.50
65680;PMS5003;61747;54.966;73.394;2022-09-01T11:42:22;30.00;25.00;15.00
65680;PMS5003;61747;54.966;73.394;2022-09-01T11:45:05;26.00;23.50;12.25
65680;PMS5003;61747;54.966;73.394;2022-09-01T11:47:39;25.75;22.00;10.00
65680;PMS5003;61747;54.966;73.394;2022-09-01T11:50:07;28.50;23.50;13.00
65680;PMS5003;61747;54.966;73.394;2022-09-01T11:52:41;28.00;24.00;13.00
65680;PMS5003;61747;54.966;73.394;2022-09-01T11:55:07;26.00;23.25;13.00
65680;PMS5003;61747;54.966;73.394;2022-09-01T11:57:36;24.00;23.00;13.50
65680;PMS5003;61747;54.966;73.394;2022-09-01T12:00:13;28.50;25.75;14.25
65680;PMS5003;61747;54.966;73.394;2022-09-01T12:02:43;27.00;23.00;13.00
65680;PMS5003;61747;54.966;73.394;2022-09-01T12:08:12;29.25;26.00;16.00
65680;PMS5003;61747;54.966;73.394;2022-09-01T12:10:39;31.25;25.00;14.50
65680;PMS5003;61747;54.966;73.394;2022-09-01T12:15:51;27.00;24.00;12.75
65680;PMS5003;61747;54.966;73.394;2022-09-01T12:18:19;27.75;26.00;13.50
65680;PMS5003;61747;54.966;73.394;2022-09-01T12:20:50;25.00;25.00;14.00
65680;PMS5003;61747;54.966;73.394;2022-09-01T12:23:30;26.00;25.00;16.00
65680;PMS5003;61747;54.966;73.394;2022-09-01T12:26:02;26.50;24.50;15.50
65680;PMS5003;61747;54.966;73.394;2022-09-01T12:28:29;24.00;21.00;11.00
65680;PMS5003;61747;54.966;73.394;2022-09-01T12:31:16;21.25;20.25;12.00
65680;PMS5003;61747;54.966;73.394;2022-09-01T12:33:42;26.25;24.00;13.00
65680;PMS5003;61747;54.966;73.394;2022-09-01T12:38:50;26.25;22.00;11.75
65680;PMS5003;61747;54.966;73.394;2022-09-01T12:41:29;27.75;24.00;12.25
65680;PMS5003;61747;54.966;73.394;2022-09-01T12:43:57;26.75;22.00;12.00
65680;PMS5003;61747;54.966;73.394;2022-09-01T12:46:44;29.50;24.50;13.00
65680;PMS5003;61747;54.966;73.394;2022-09-01T12:49:21;29.50;25.00;14.50
65680;PMS5003;61747;54.966;73.394;2022-09-01T12:52:11;29.00;22.00;13.00
65680;PMS5003;61747;54.966;73.394;2022-09-01T12:54:38;28.00;23.25;11.50
65680;PMS5003;61747;54.966;73.394;2022-09-01T12:57:04;29.50;25.00;14.00
65680;PMS5003;61747;54.966;73.394;2022-09-01T12:59:39;27.50;23.00;13.50
65680;PMS5003;61747;54.966;73.394;2022-09-01T13:02:26;23.25;21.00;11.00
65680;PMS5003;61747;54.966;73.394;2022-09-01T13:07:59;26.00;23.00;11.50
65680;PMS5003;61747;54.966;73.394;2022-09-01T13:13:06;28.00;23.50;12.25
65680;PMS5003;61747;54.966;73.394;2022-09-01T13:15:33;24.75;21.00;11.00
65680;PMS5003;61747;54.966;73.394;2022-09-01T13:18:08;24.25;21.00;10.00
65680;PMS5003;61747;54.966;73.394;2022-09-01T13:20:35;21.25;17.25;7.50
65680;PMS5003;61747;54.966;73.394;2022-09-01T13:23:01;22.00;19.00;9.50
65680;PMS5003;61747;54.966;73.394;2022-09-01T13:25:27;19.00;18.00;7.00
65680;PMS5003;61747;54.966;73.394;2022-09-01T13:27:58;20.75;19.00;7.00
65680;PMS5003;61747;54.966;73.394;2022-09-01T13:30:27;20.50;18.00;9.00
65680;PMS5003;61747;54.966;73.394;2022-09-01T13:33:05;23.00;20.50;8.75
65680;PMS5003;61747;54.966;73.394;2022-09-01T13:35:31;23.50;21.00;8.75
65680;PMS5003;61747;54.966;73.394;2022-09-01T13:38:01;19.75;16.50;6.50
65680;PMS5003;61747;54.966;73.394;2022-09-01T13:40:27;20.00;18.00;7.00
65680;PMS5003;61747;54.966;73.394;2022-09-01T13:42:53;23.67;20.67;8.67
65680;PMS5003;61747;54.966;73.394;2022-09-01T13:45:30;24.00;19.00;7.00
65680;PMS5003;61747;54.966;73.394;2022-09-01T13:47:55;21.00;19.00;8.00
65680;PMS5003;61747;54.966;73.394;2022-09-01T13:50:21;23.33;20.00;9.67
65680;PMS5003;61747;54.966;73.394;2022-09-01T13:52:55;20.00;18.50;7.00
65680;PMS5003;61747;54.966;73.394;2022-09-01T13:55:33;19.25;17.00;6.25
65680;PMS5003;61747;54.966;73.394;2022-09-01T13:57:59;18.00;15.00;7.00
65680;PMS5003;61747;54.966;73.394;2022-09-01T14:00:26;17.33;15.67;6.00
65680;PMS5003;61747;54.966;73.394;2022-09-01T14:03:00;20.00;17.00;7.00
65680;PMS5003;61747;54.966;73.394;2022-09-01T14:05:28;19.00;17.00;7.00
65680;PMS5003;61747;54.966;73.394;2022-09-01T14:07:54;20.75;17.50;7.00
65680;PMS5003;61747;54.966;73.394;2022-09-01T14:10:31;18.00;17.25;6.00
65680;PMS5003;61747;54.966;73.394;2022-09-01T14:13:08;17.50;16.50;5.00
65680;PMS5003;61747;54.966;73.394;2022-09-01T14:15:34;18.00;16.50;5.75
65680;PMS5003;61747;54.966;73.394;2022-09-01T14:18:02;20.25;17.25;5.50
65680;PMS5003;61747;54.966;73.394;2022-09-01T14:20:38;19.25;17.50;7.00
65680;PMS5003;61747;54.966;73.394;2022-09-01T14:23:09;21.00;18.50;7.00
65680;PMS5003;61747;54.966;73.394;2022-09-01T14:25:41;20.00;18.00;7.00
65680;PMS5003;61747;54.966;73.394;2022-09-01T14:28:07;20.50;18.50;7.75
65680;PMS5003;61747;54.966;73.394;2022-09-01T14:30:39;18.25;16.50;5.75
65680;PMS5003;61747;54.966;73.394;2022-09-01T14:33:11;20.00;15.00;5.25
65680;PMS5003;61747;54.966;73.394;2022-09-01T14:35:41;18.00;16.00;6.00
65680;PMS5003;61747;54.966;73.394;2022-09-01T14:38:08;18.50;16.00;7.00
65680;PMS5003;61747;54.966;73.394;2022-09-01T14:40:35;18.00;15.50;6.00
65680;PMS5003;61747;54.966;73.394;2022-09-01T14:43:07;17.50;16.00;7.00
65680;PMS5003;61747;54.966;73.394;2022-09-01T14:45:40;17.00;15.75;7.50
65680;PMS5003;61747;54.966;73.394;2022-09-01T14:48:18;20.75;17.75;6.75
65680;PMS5003;61747;54.966;73.394;2022-09-01T14:50:46;19.00;17.00;7.00
65680;PMS5003;61747;54.966;73.394;2022-09-01T14:53:13;19.00;16.00;6.25
65680;PMS5003;61747;54.966;73.394;2022-09-01T14:55:43;19.75;16.75;7.00
65680;PMS5003;61747;54.966;73.394;2022-09-01T14:58:10;20.25;16.00;7.00
65680;PMS5003;61747;54.966;73.394;2022-09-01T15:00:35;19.67;16.67;8.00
65680;PMS5003;61747;54.966;73.394;2022-09-01T15:03:05;18.00;16.00;6.00
65680;PMS5003;61747;54.966;73.394;2022-09-01T15:05:31;19.00;16.00;7.00
65680;PMS5003;61747;54.966;73.394;2022-09-01T15:08:07;20.00;17.00;7.00
65680;PMS5003;61747;54.966;73.394;2022-09-01T15:10:34;16.50;15.00;6.00
65680;PMS5003;61747;54.966;73.394;2022-09-01T15:13:00;17.00;14.50;5.25
65680;PMS5003;61747;54.966;73.394;2022-09-01T15:15:29;19.00;15.00;7.00
65680;PMS5003;61747;54.966;73.394;2022-09-01T15:18:01;19.00;16.00;6.00
65680;PMS5003;61747;54.966;73.394;2022-09-01T15:20:27;18.00;17.00;7.67
65680;PMS5003;61747;54.966;73.394;2022-09-01T15:23:18;22.00;16.00;7.00
65680;PMS5003;61747;54.966;73.394;2022-09-01T15:25:44;19.00;16.00;6.00